• Join FlightAware (Why Join?)
  • Login
  • US Flag 
02:14AM EDT


 

Airport Tracker/Info


-or-


 

Live Flight TrackerFlight Track Log ✈ UAL4788 ✈ 27-Nov-2013 ✈ KFNT - KCLE

Flight Track Log - Related Links

Times and Time Zones

All times are in EST time to prevent confusion due to time zone crossing. See the UAL4788 flight status page for this flight to view local times or setup timezone preferences in your user account.

Time Position Orientation Groundspeed Altitude Reporting Facility
EST Latitude Longitude Course Direction KTS MPH feet Rate Location/Type
06:25AM 42.9436 -83.7919 137° Southeast 173 199 3,000  Level Cleveland Center
06:26AM 42.9225 -83.7689 141° Southeast 197 227 3,800 1,320 Climbing Cleveland Center
06:27AM 42.8939 -83.7250 132° Southeast 192 221 4,900 600 Climbing Cleveland Center
06:28AM 42.8481 -83.6514 130° Southeast 238 274 5,000 60 Climbing Cleveland Center
06:28AM 42.8314 -83.6242 130° Southeast 262 302 5,000 840 Level Cleveland Center
06:29AM 42.8017 -83.5758 130° Southeast 259 298 5,900 1,320 Climbing Cleveland Center
06:29AM 42.7867 -83.5522 131° Southeast 236 272 6,400 1,080 Climbing Cleveland Center
06:30AM 42.7388 -83.4603 161° South  Level Estimated
06:30AM 42.7647 -83.5056 123° Southeast 235 270 7,000  Level Cleveland Center
06:30AM 42.7486 -83.4783 129° Southeast 239 275 7,000  Level Cleveland Center
06:31AM 42.6941 -83.4028 137° Southeast  Level FlightAware Approximate
06:31AM 42.7189 -83.4233 126° Southeast 258 297 7,000  Level Cleveland Center
06:31AM 42.7044 -83.3983 128° Southeast 264 304 7,000  Level Cleveland Center
06:32AM 42.6792 -83.3536 128° Southeast 261 300 7,000  Level Cleveland Center
06:32AM 42.6603 -83.3208 128° Southeast 257 296 7,000  Level Cleveland Center
06:33AM 42.6372 -83.2758 125° Southeast 258 297 7,000  Level Cleveland Center
06:33AM 42.6139 -83.2406 132° Southeast 252 290 7,000  Level Cleveland Center
06:34AM 42.5900 -83.2067 134° Southeast 252 290 7,000  Level Cleveland Center
06:34AM 42.5572 -83.1619 135° Southeast 246 283 7,000  Level Cleveland Center
06:35AM 42.5411 -83.1406 136° Southeast 248 285 7,000  Level Cleveland Center
06:36AM 42.4939 -83.0731 133° Southeast 246 283 7,000  Level Cleveland Center
06:37AM 42.4456 -83.0075 135° Southeast 246 283 7,000  Level Cleveland Center
06:38AM 42.3969 -82.9425 135° Southeast 245 282 7,000  Level Cleveland Center
06:39AM 42.3492 -82.8764 134° Southeast 246 283 7,000  Level Cleveland Center
06:40AM 42.2914 -82.7958 134° Southeast 248 285 7,000  Level Cleveland Center
06:41AM 42.2422 -82.7311 136° Southeast 247 284 7,100  Climbing Cleveland Center
06:42AM 42.1942 -82.6653 135° Southeast 247 284 7,100  Level Cleveland Center
06:43AM 42.1458 -82.5983 134° Southeast 248 285 7,100  Level Cleveland Center
06:44AM 42.0967 -82.5331 135° Southeast 248 285 7,100 -60 Level Cleveland Center
06:45AM 42.0619 -82.4878 136° Southeast 247 284 7,000  Descending Cleveland Center
06:45AM 42.0481 -82.4672 132° Southeast 248 285 7,100  Climbing Cleveland Center
06:45AM 42.0358 -82.4522 138° Southeast 246 283 7,000  Descending Cleveland Center
06:46AM 41.9994 -82.4028 135° Southeast 246 283 7,100  Climbing Cleveland Center
06:46AM 41.9875 -82.3875 136° Southeast 246 283 7,000  Descending Cleveland Center
06:47AM 41.9517 -82.3378 134° Southeast 245 282 7,100  Climbing Cleveland Center
06:47AM 41.9392 -82.3228 138° Southeast 244 281 7,000 -120 Descending Cleveland Center
06:48AM 41.9033 -82.2733 134° Southeast 245 282 7,000  Level Cleveland Center
06:48AM 41.8906 -82.2583 139° Southeast 247 284 7,000 -120 Level Cleveland Center
06:49AM 41.8539 -82.2083 135° Southeast 248 285 6,900 -120 Descending Cleveland Center
06:49AM 41.8403 -82.1908 136° Southeast 247 284 6,900 60 Level Cleveland Center
06:50AM 41.7983 -82.1564 149° Southeast 246 283 7,000 60 Climbing Cleveland Center
06:50AM 41.7817 -82.1444 152° Southeast 249 287 7,000  Level Cleveland Center
06:51AM 41.7356 -82.1083 150° Southeast 249 287 7,000  Level Cleveland Center
06:51AM 41.7258 -82.0900 125° Southeast 252 290 7,000 -540 Level Cleveland Center
06:52AM 41.7044 -82.0247 114° Southeast 252 290 6,500 -840 Descending Cleveland Center
06:52AM 41.6981 -82.0069 116° Southeast 252 290 6,200 -1,200 Descending Cleveland Center
06:53AM 41.6675 -81.9242 116° Southeast 254 292 5,300 -1,020 Descending Cleveland Center
06:53AM 41.6658 -81.9231 154° Southeast 251 289 5,200 -1,020 Descending Cleveland Center
06:54AM 41.6358 -81.8425 116° Southeast 249 287 4,300 -1,020 Descending Cleveland Center
06:54AM 41.6358 -81.8397 90° East 244 281 4,200 -300 Descending Cleveland Center
06:55AM 41.6064 -81.7611 117° Southeast 245 282 4,000 -240 Descending Cleveland Center
06:55AM 41.6053 -81.7594 132° Southeast 240 276 4,000 -540 Level Cleveland Center
06:56AM 41.5758 -81.6803 116° Southeast 242 278 3,500 -540 Descending Cleveland Center
06:56AM 41.5750 -81.6789 129° Southeast 245 282 3,500 -420 Level Cleveland Center
06:57AM 41.5242 -81.6819 183° South 197 227 3,100 -540 Descending Cleveland Center
06:57AM 41.5208 -81.6844 209° Southwest 218 251 3,000 -240 Descending Cleveland Center
06:58AM 41.4858 -81.7358 228° Southwest 195 224 2,900 -120 Descending Cleveland Center
06:58AM 41.4833 -81.7394 227° Southwest 163 188 2,900 -780 Level Cleveland Center
06:59AM 41.4561 -81.7828 230° Southwest 147 169 2,100 -840 Descending Cleveland Center
07:00AM 41.4314 -81.8233 231° Southwest 140 161 1,300 -600 Descending Cleveland Center
07:01AM 41.4083 -81.8597 230° Southwest 138 159 900 -420 Descending Cleveland Center